Time;durP1;ratioP1;P1;durP2;ratioP2;P2;SDS_P1;SDS_P2;PMS_P1;PMS_P2;Temp;Humidity;BMP_temperature;BMP_pressure;BME280_temperature;BME280_humidity;BME280_pressure;Samples;Min_cycle;Max_cycle;Signal;HPM_P1;HPM_P2
2023/10/19 00:01:37;;;;;;;11.35;8.90;;;15.90;99.90;;;;;;4921159;29;20485;-88
2023/10/19 00:04:07;;;;;;;11.80;9.20;;;15.90;99.90;;;;;;4921271;29;20559;-88
2023/10/19 00:06:34;;;;;;;11.52;9.07;;;15.90;99.90;;;;;;4921171;29;20065;-88
2023/10/19 00:09:02;;;;;;;16.95;8.80;;;16.00;99.90;;;;;;4921035;29;20035;-89
2023/10/19 00:11:31;;;;;;;10.70;8.55;;;15.90;99.90;;;;;;4921150;29;20028;-88
2023/10/19 00:13:59;;;;;;;10.18;8.70;;;15.90;99.90;;;;;;4921093;29;20063;-88
2023/10/19 00:16:29;;;;;;;10.15;8.40;;;15.90;99.90;;;;;;4921105;29;20024;-89
2023/10/19 00:19:00;;;;;;;10.68;8.57;;;15.80;99.90;;;;;;4921110;29;20032;-88
2023/10/19 00:21:28;;;;;;;11.05;8.55;;;15.80;99.90;;;;;;4920892;29;20059;-89
2023/10/19 00:24:02;;;;;;;12.18;9.05;;;15.90;99.90;;;;;;4920999;29;20056;-88
2023/10/19 00:26:30;;;;;;;11.80;8.10;;;15.80;99.90;;;;;;4921133;29;20035;-88
2023/10/19 00:29:08;;;;;;;10.27;9.20;;;15.80;99.90;;;;;;4928193;29;20034;-87
2023/10/19 00:31:40;;;;;;;12.90;9.18;;;15.80;99.90;;;;;;4939695;29;20039;-88
2023/10/19 00:34:08;;;;;;;11.48;8.40;;;15.80;99.90;;;;;;4939630;29;20058;-90
2023/10/19 00:36:38;;;;;;;10.00;8.20;;;15.80;99.90;;;;;;4939607;29;20039;-88
2023/10/19 00:39:14;;;;;;;13.60;9.00;;;15.90;99.90;;;;;;4939742;29;20097;-87
2023/10/19 00:41:42;;;;;;;11.40;8.80;;;15.80;99.90;;;;;;4939529;29;20035;-87
2023/10/19 00:44:11;;;;;;;11.07;8.80;;;15.80;99.90;;;;;;4932150;29;20059;-87
2023/10/19 00:49:12;;;;;;;10.15;8.73;;;15.90;99.90;;;;;;4935474;29;20039;-88
2023/10/19 00:54:55;;;;;;;12.35;8.30;;;15.90;99.90;;;;;;4936256;29;20035;-89
2023/10/19 00:57:32;;;;;;;10.48;8.82;;;15.90;99.90;;;;;;4936163;29;20035;-87
2023/10/19 01:00:11;;;;;;;11.30;8.00;;;16.00;99.90;;;;;;4920327;29;20500;-88
2023/10/19 01:02:46;;;;;;;10.43;8.23;;;16.00;99.90;;;;;;4920375;29;20478;-87
2023/10/19 01:05:15;;;;;;;11.05;9.23;;;16.00;99.90;;;;;;4920361;29;20051;-88
2023/10/19 01:07:44;;;;;;;10.95;8.05;;;16.10;99.90;;;;;;4920789;29;20078;-87
2023/10/19 01:10:21;;;;;;;11.52;8.90;;;16.10;99.90;;;;;;4920239;29;20477;-88
2023/10/19 01:12:47;;;;;;;9.63;7.68;;;16.10;99.90;;;;;;4920133;29;20041;-88
2023/10/19 01:15:52;;;;;;;10.23;7.78;;;16.10;99.90;;;;;;4909942;29;20032;-87
2023/10/19 01:18:14;;;;;;;8.18;7.35;;;16.20;99.90;;;;;;4914833;29;20040;-89
2023/10/19 01:20:55;;;;;;;8.50;7.20;;;16.20;99.90;;;;;;4916778;29;20047;-88
2023/10/19 01:23:23;;;;;;;10.65;7.85;;;16.20;99.90;;;;;;4916658;29;20425;-89
2023/10/19 01:28:25;;;;;;;11.85;8.18;;;16.20;99.90;;;;;;4917843;29;20075;-88
2023/10/19 01:30:52;;;;;;;8.98;7.78;;;16.30;99.90;;;;;;4916871;29;20059;-89
2023/10/19 01:33:19;;;;;;;9.00;7.35;;;16.20;99.90;;;;;;4916848;29;20029;-88
2023/10/19 01:38:31;;;;;;;8.75;7.43;;;16.30;99.90;;;;;;4916605;29;20036;-88
2023/10/19 01:41:15;;;;;;;9.68;6.95;;;16.30;99.90;;;;;;4916606;29;20024;-88
2023/10/19 01:43:48;;;;;;;8.82;6.72;;;16.30;99.90;;;;;;4916728;29;20032;-88
2023/10/19 01:46:24;;;;;;;12.60;7.47;;;16.40;99.90;;;;;;4916856;29;20071;-88
2023/10/19 01:48:57;;;;;;;8.98;7.80;;;16.40;99.90;;;;;;4916677;29;20063;-90
2023/10/19 01:51:28;;;;;;;8.80;7.60;;;16.40;99.90;;;;;;4916594;29;20084;-88
2023/10/19 01:53:56;;;;;;;8.93;7.00;;;16.40;99.90;;;;;;4900939;29;20044;-88
2023/10/19 01:56:23;;;;;;;7.80;7.00;;;16.40;99.90;;;;;;4916366;29;20449;-88
2023/10/19 01:58:54;;;;;;;9.80;7.47;;;16.40;99.90;;;;;;4916523;29;20025;-88
2023/10/19 02:04:03;;;;;;;10.82;7.93;;;16.50;99.90;;;;;;4920241;29;20040;-88
2023/10/19 02:09:08;;;;;;;8.00;6.90;;;16.50;99.90;;;;;;4919950;29;20048;-87
2023/10/19 02:11:41;;;;;;;7.82;7.03;;;16.60;99.90;;;;;;4920040;29;20032;-87
2023/10/19 02:14:15;;;;;;;8.30;6.90;;;16.60;99.90;;;;;;4920029;29;20032;-87
2023/10/19 02:16:47;;;;;;;9.73;7.00;;;16.60;99.90;;;;;;4920113;29;20062;-87
2023/10/19 02:19:14;;;;;;;8.93;6.85;;;16.70;99.90;;;;;;4920129;29;20032;-88
2023/10/19 02:21:40;;;;;;;7.82;6.80;;;16.70;99.90;;;;;;4919793;29;20052;-87
2023/10/19 02:24:08;;;;;;;8.20;7.00;;;16.80;99.90;;;;;;4919889;29;20036;-86
2023/10/19 02:26:35;;;;;;;6.82;6.22;;;16.80;99.90;;;;;;4920064;29;20064;-89
2023/10/19 02:29:07;;;;;;;7.10;6.40;;;16.80;99.90;;;;;;4919724;29;20131;-89
2023/10/19 02:31:37;;;;;;;7.22;6.53;;;16.80;99.90;;;;;;4919719;29;20032;-87
2023/10/19 02:34:04;;;;;;;11.80;7.55;;;16.90;99.90;;;;;;4903929;29;20481;-88
2023/10/19 02:36:32;;;;;;;6.72;6.15;;;16.90;99.90;;;;;;4919783;29;20036;-87
2023/10/19 02:39:09;;;;;;;7.15;6.40;;;16.90;99.90;;;;;;4919588;29;20038;-87
2023/10/19 02:41:38;;;;;;;8.15;5.82;;;16.90;99.90;;;;;;4919562;29;20032;-87
2023/10/19 02:44:19;;;;;;;6.72;6.05;;;17.00;99.90;;;;;;4919431;29;20036;-86
2023/10/19 02:46:52;;;;;;;6.85;5.95;;;17.10;99.90;;;;;;4919380;29;20036;-86
2023/10/19 02:49:20;;;;;;;7.07;6.38;;;17.10;99.90;;;;;;4919386;29;20084;-88
2023/10/19 02:51:49;;;;;;;6.63;6.05;;;17.20;99.90;;;;;;4922133;29;20024;-89
2023/10/19 02:54:24;;;;;;;6.50;5.80;;;17.20;99.90;;;;;;4922489;29;20509;-88
2023/10/19 02:56:53;;;;;;;6.45;5.75;;;17.20;99.90;;;;;;4938165;29;20044;-87
2023/10/19 02:59:22;;;;;;;6.75;6.03;;;17.20;99.90;;;;;;4922242;29;20028;-89
2023/10/19 03:01:50;;;;;;;6.65;5.60;;;17.30;99.90;;;;;;4922148;29;20042;-87
2023/10/19 03:04:17;;;;;;;6.80;6.10;;;17.30;99.90;;;;;;4922326;29;20024;-87
2023/10/19 03:06:43;;;;;;;6.28;5.60;;;17.20;99.90;;;;;;4922251;29;20115;-89
2023/10/19 03:09:22;;;;;;;8.02;6.15;;;17.20;99.90;;;;;;4921998;29;20118;-88
2023/10/19 03:11:52;;;;;;;6.70;6.00;;;17.20;99.90;;;;;;4937197;29;20078;-91
2023/10/19 03:14:19;;;;;;;7.93;6.10;;;17.20;99.90;;;;;;4922934;29;20035;-92
2023/10/19 03:16:46;;;;;;;7.25;5.93;;;17.20;99.90;;;;;;4923298;29;20036;-91
2023/10/19 03:19:15;;;;;;;6.75;6.00;;;17.20;99.90;;;;;;4922496;29;20034;-90
2023/10/19 03:21:48;;;;;;;12.00;6.20;;;17.20;99.90;;;;;;4922252;29;20040;-90
2023/10/19 03:27:15;;;;;;;7.00;6.00;;;17.20;99.90;;;;;;4938100;29;20059;-90
2023/10/19 03:29:46;;;;;;;6.18;5.55;;;17.30;99.90;;;;;;4922642;29;20023;-90
2023/10/19 03:32:14;;;;;;;7.53;5.57;;;17.40;99.90;;;;;;4923325;29;20038;-88
2023/10/19 03:34:45;;;;;;;6.55;5.70;;;17.40;99.90;;;;;;4921671;29;20130;-91
2023/10/19 03:37:14;;;;;;;7.10;6.18;;;17.50;99.90;;;;;;4921754;29;20042;-90
2023/10/19 03:39:42;;;;;;;5.78;5.30;;;17.50;99.90;;;;;;4922198;29;20028;-89
2023/10/19 03:42:09;;;;;;;6.50;5.60;;;17.50;99.90;;;;;;4921427;29;20473;-88
2023/10/19 03:44:50;;;;;;;5.82;5.32;;;17.50;99.90;;;;;;4921568;29;20470;-90
2023/10/19 03:47:20;;;;;;;6.07;5.43;;;17.50;99.90;;;;;;4921731;29;20035;-89
2023/10/19 03:49:48;;;;;;;9.55;5.93;;;17.50;99.90;;;;;;4921565;29;20119;-91
2023/10/19 03:54:41;;;;;;;5.95;5.45;;;17.40;99.90;;;;;;4937236;29;20040;-88
2023/10/19 03:57:20;;;;;;;6.80;5.75;;;17.50;99.90;;;;;;4921549;29;20019;-89
2023/10/19 03:59:50;;;;;;;9.90;6.47;;;17.50;99.90;;;;;;4921613;29;20047;-88
2023/10/19 04:02:20;;;;;;;6.50;5.95;;;17.50;99.90;;;;;;4921249;29;20038;-89
2023/10/19 04:04:52;;;;;;;6.45;5.25;;;17.50;99.90;;;;;;4921607;29;20027;-89
2023/10/19 04:07:25;;;;;;;6.70;6.10;;;17.60;99.90;;;;;;4920997;29;20035;-85
2023/10/19 04:12:28;;;;;;;;;;;17.60;99.90;;;;;;4937023;29;20193;-87
2023/10/19 04:15:09;;;;;;;6.47;5.68;;;17.60;99.90;;;;;;4915818;29;19915;-85
2023/10/19 04:17:36;;;;;;;6.10;5.57;;;17.60;99.90;;;;;;4902326;29;20028;-90
2023/10/19 04:22:50;;;;;;;6.13;5.53;;;17.60;99.90;;;;;;4870921;29;20048;-89
2023/10/19 04:25:25;;;;;;;7.32;5.50;;;17.60;99.90;;;;;;4894259;29;20038;-88
2023/10/19 04:27:53;;;;;;;6.20;5.60;;;17.60;99.90;;;;;;4904922;29;20434;-90
2023/10/19 04:30:22;;;;;;;6.28;5.68;;;17.60;99.90;;;;;;4904727;29;20062;-88
2023/10/19 04:32:50;;;;;;;7.10;5.80;;;17.60;99.90;;;;;;4904847;29;20138;-88
2023/10/19 04:35:23;;;;;;;6.30;5.70;;;17.60;99.90;;;;;;4904775;29;20035;-90
2023/10/19 04:37:53;;;;;;;6.43;5.82;;;17.70;99.90;;;;;;4904766;29;20118;-86
2023/10/19 04:40:22;;;;;;;7.65;5.75;;;17.70;99.90;;;;;;4920146;29;20159;-89
2023/10/19 04:42:55;;;;;;;6.30;5.70;;;17.70;99.90;;;;;;4904868;29;20055;-87
2023/10/19 04:45:22;;;;;;;6.13;5.60;;;17.80;99.90;;;;;;4904891;29;20114;-88
2023/10/19 04:47:52;;;;;;;7.30;5.65;;;17.90;99.90;;;;;;4904823;29;20282;-89
2023/10/19 04:50:19;;;;;;;6.53;5.93;;;17.90;99.90;;;;;;4904441;29;20043;-89
2023/10/19 04:52:46;;;;;;;6.80;6.05;;;18.00;99.90;;;;;;4904693;29;20115;-91
2023/10/19 04:55:12;;;;;;;7.35;5.38;;;18.00;99.90;;;;;;4904610;29;20048;-88
2023/10/19 04:57:39;;;;;;;6.25;5.55;;;18.10;99.90;;;;;;4904394;29;20020;-88
2023/10/19 05:00:06;;;;;;;6.20;5.70;;;18.10;99.90;;;;;;4920484;29;20031;-89
2023/10/19 05:02:32;;;;;;;7.43;5.95;;;18.20;99.90;;;;;;4904341;29;20039;-88
2023/10/19 05:04:59;;;;;;;6.78;5.70;;;18.20;99.90;;;;;;4920447;29;20469;-88
2023/10/19 05:07:26;;;;;;;5.82;5.38;;;18.30;99.90;;;;;;4904307;29;20545;-89
2023/10/19 05:09:53;;;;;;;6.13;5.60;;;18.30;99.90;;;;;;4904250;29;20027;-90
2023/10/19 05:12:21;;;;;;;6.57;5.97;;;18.40;99.90;;;;;;4904951;29;20028;-89
2023/10/19 05:14:50;;;;;;;6.63;6.13;;;18.40;99.90;;;;;;4904604;29;20032;-87
2023/10/19 05:17:20;;;;;;;6.63;5.97;;;18.60;99.90;;;;;;4904676;29;20375;-89
2023/10/19 05:19:47;;;;;;;6.43;5.80;;;18.60;99.90;;;;;;4904409;29;20028;-91
2023/10/19 05:22:13;;;;;;;6.55;6.05;;;18.70;99.90;;;;;;4918555;29;20056;-91
2023/10/19 05:24:40;;;;;;;7.50;6.57;;;18.70;99.90;;;;;;4920370;29;20481;-91
2023/10/19 05:27:09;;;;;;;7.05;6.35;;;18.80;99.90;;;;;;4919799;29;20032;-87
2023/10/19 05:29:36;;;;;;;7.70;7.00;;;18.90;99.90;;;;;;4920135;29;20029;-88
2023/10/19 05:32:03;;;;;;;9.45;7.07;;;18.90;99.90;;;;;;4920406;29;20085;-89
2023/10/19 05:34:32;;;;;;;7.70;7.00;;;19.00;99.90;;;;;;4921083;29;20039;-88
2023/10/19 05:37:01;;;;;;;8.82;7.40;;;19.00;99.90;;;;;;4924082;29;20031;-86
2023/10/19 05:39:30;;;;;;;7.68;7.13;;;19.10;99.90;;;;;;4923658;29;20036;-88
2023/10/19 05:42:00;;;;;;;8.18;7.57;;;19.10;99.90;;;;;;4923443;29;20032;-87
2023/10/19 05:44:30;;;;;;;7.53;7.13;;;19.20;99.90;;;;;;4939698;29;20042;-87
2023/10/19 05:46:58;;;;;;;8.75;8.05;;;19.30;99.90;;;;;;4923583;29;20111;-89
2023/10/19 05:49:25;;;;;;;8.65;8.05;;;19.30;99.90;;;;;;4923458;29;20057;-88
2023/10/19 05:51:52;;;;;;;8.80;8.30;;;19.30;99.90;;;;;;4923568;29;20023;-89
2023/10/19 05:54:18;;;;;;;8.55;8.02;;;19.40;99.90;;;;;;4923241;29;20035;-87
2023/10/19 05:56:45;;;;;;;8.85;8.20;;;19.50;99.90;;;;;;4905417;29;20036;-88
2023/10/19 05:59:13;;;;;;;9.52;8.73;;;19.50;99.90;;;;;;4904604;29;20028;-88
2023/10/19 06:01:41;;;;;;;10.30;9.60;;;19.60;99.90;;;;;;4904242;29;20035;-85
2023/10/19 06:04:07;;;;;;;9.65;9.05;;;19.60;99.90;;;;;;4919652;29;20028;-82
2023/10/19 06:06:34;;;;;;;10.88;9.35;;;19.80;99.90;;;;;;4920264;29;20111;-87
2023/10/19 06:09:02;;;;;;;10.57;9.70;;;19.80;99.90;;;;;;4904264;29;20025;-87
2023/10/19 06:11:37;;;;;;;10.25;9.55;;;19.90;99.90;;;;;;4904265;29;20036;-87
2023/10/19 06:14:07;;;;;;;11.75;10.75;;;19.90;99.90;;;;;;4904285;29;20056;-86
2023/10/19 06:16:34;;;;;;;10.98;10.38;;;20.00;99.90;;;;;;4936295;29;20032;-85
2023/10/19 06:19:00;;;;;;;11.10;10.45;;;20.20;99.90;;;;;;4923001;29;20020;-86
2023/10/19 06:21:27;;;;;;;12.20;11.30;;;20.20;99.90;;;;;;4923571;29;20075;-86
2023/10/19 06:23:54;;;;;;;13.02;11.98;;;20.30;99.90;;;;;;4922962;29;20466;-86
2023/10/19 06:26:21;;;;;;;13.05;12.13;;;20.40;99.90;;;;;;4908894;29;20035;-87
2023/10/19 06:28:47;;;;;;;13.30;12.50;;;20.60;99.90;;;;;;4903897;29;20039;-87
2023/10/19 06:31:15;;;;;;;14.10;13.18;;;20.70;99.90;;;;;;4939168;29;20032;-86
2023/10/19 06:33:42;;;;;;;14.82;13.75;;;20.90;99.90;;;;;;4922810;29;20034;-86
2023/10/19 06:36:09;;;;;;;15.40;14.50;;;21.00;99.90;;;;;;4922756;29;20035;-86
2023/10/19 06:38:35;;;;;;;15.93;14.93;;;21.10;99.90;;;;;;4922481;29;20059;-86
2023/10/19 06:41:14;;;;;;;17.17;15.80;;;21.30;99.90;;;;;;4922764;29;20035;-87
2023/10/19 06:43:41;;;;;;;16.98;15.77;;;21.50;99.90;;;;;;4922771;29;20027;-87
2023/10/19 06:46:11;;;;;;;18.08;16.45;;;21.50;99.90;;;;;;4912357;29;20472;-88
2023/10/19 06:48:38;;;;;;;17.33;16.17;;;21.50;99.90;;;;;;4923840;29;20119;-87
2023/10/19 06:51:05;;;;;;;16.35;15.25;;;21.40;99.90;;;;;;4922169;29;20051;-86
2023/10/19 06:53:32;;;;;;;16.27;15.27;;;21.30;99.90;;;;;;4922671;29;20036;-88
2023/10/19 06:55:59;;;;;;;16.15;15.05;;;21.20;99.90;;;;;;4911384;29;20040;-85
2023/10/19 06:58:26;;;;;;;16.52;15.38;;;21.20;99.90;;;;;;4919182;29;20111;-86
2023/10/19 07:00:56;;;;;;;16.13;15.20;;;21.40;99.90;;;;;;4903524;29;20055;-87
2023/10/19 07:03:23;;;;;;;16.50;15.20;;;21.40;99.90;;;;;;4919435;29;20478;-87
2023/10/19 07:05:52;;;;;;;15.77;14.63;;;21.40;99.90;;;;;;4903310;29;20028;-88
2023/10/19 07:08:20;;;;;;;15.63;14.52;;;21.40;99.90;;;;;;4919118;29;20088;-87
2023/10/19 07:10:49;;;;;;;16.15;14.85;;;21.40;99.90;;;;;;4903394;29;20028;-86
2023/10/19 07:13:16;;;;;;;14.95;14.02;;;21.30;99.90;;;;;;4919070;29;20032;-88
2023/10/19 07:15:45;;;;;;;15.57;14.48;;;21.40;99.90;;;;;;4903187;29;20044;-87
2023/10/19 07:18:12;;;;;;;15.50;14.50;;;21.30;99.90;;;;;;4903295;29;20064;-88
2023/10/19 07:20:38;;;;;;;15.50;14.50;;;21.30;99.90;;;;;;4902991;29;20048;-87
2023/10/19 07:23:28;;;;;;;15.95;14.70;;;21.20;99.90;;;;;;4904119;29;20091;-88
2023/10/19 07:25:59;;;;;;;15.35;14.00;;;21.10;99.90;;;;;;4918812;29;20080;-87
2023/10/19 07:28:27;;;;;;;14.73;13.75;;;21.10;99.90;;;;;;4918964;29;20036;-86
2023/10/19 07:30:54;;;;;;;14.80;13.70;;;21.10;99.90;;;;;;4903727;29;20047;-85
2023/10/19 07:33:20;;;;;;;14.45;13.40;;;21.10;99.90;;;;;;4918751;29;20114;-87
2023/10/19 07:35:52;;;;;;;14.70;13.63;;;21.20;99.90;;;;;;4908366;29;20091;-87
2023/10/19 07:38:21;;;;;;;14.98;13.80;;;21.20;99.90;;;;;;4902596;29;20035;-85
2023/10/19 07:40:48;;;;;;;15.00;13.75;;;21.30;99.90;;;;;;4902527;29;20394;-85
2023/10/19 07:43:15;;;;;;;14.15;13.13;;;21.30;99.90;;;;;;4902755;29;20036;-87
2023/10/19 07:45:42;;;;;;;14.88;13.75;;;21.20;99.90;;;;;;4902490;29;20032;-86
2023/10/19 07:48:12;;;;;;;14.70;13.57;;;21.20;99.90;;;;;;4902628;29;20581;-86
2023/10/19 07:50:42;;;;;;;14.95;13.95;;;21.30;99.90;;;;;;4902665;29;20697;-88
2023/10/19 07:53:09;;;;;;;15.27;14.27;;;21.40;99.90;;;;;;4902790;29;20067;-89
2023/10/19 07:55:37;;;;;;;15.70;14.75;;;21.60;99.90;;;;;;4902614;29;20040;-88
2023/10/19 07:58:04;;;;;;;15.68;14.65;;;21.70;99.90;;;;;;4901821;29;20552;-88
2023/10/19 08:00:32;;;;;;;15.90;14.80;;;21.70;99.90;;;;;;4902398;29;20028;-87
2023/10/19 08:02:59;;;;;;;16.65;15.32;;;21.80;99.90;;;;;;4902434;29;20105;-90
2023/10/19 08:05:29;;;;;;;17.00;15.60;;;21.90;99.90;;;;;;4902647;29;20406;-92
2023/10/19 08:07:58;;;;;;;16.50;15.50;;;22.00;99.90;;;;;;4902371;29;20024;-87
2023/10/19 08:10:28;;;;;;;16.58;15.38;;;22.10;99.90;;;;;;4902263;29;20400;-88
2023/10/19 08:12:55;;;;;;;17.80;16.50;;;22.20;99.90;;;;;;4902305;29;20059;-87
2023/10/19 08:15:21;;;;;;;17.52;16.23;;;22.10;99.90;;;;;;4902040;29;20067;-87
2023/10/19 08:17:50;;;;;;;17.08;15.88;;;22.10;99.90;;;;;;4902319;29;20402;-92
2023/10/19 08:20:38;;;;;;;17.33;15.93;;;22.10;99.90;;;;;;4902381;29;20032;-88
2023/10/19 08:23:08;;;;;;;17.10;15.90;;;22.20;99.90;;;;;;4934035;29;20036;-92
2023/10/19 08:25:35;;;;;;;17.92;16.25;;;22.30;99.90;;;;;;4904171;29;20028;-88
2023/10/19 08:28:01;;;;;;;17.10;15.73;;;22.20;99.90;;;;;;4902059;29;20031;-87
2023/10/19 08:30:29;;;;;;;17.20;15.80;;;22.30;99.90;;;;;;4901976;29;20040;-88
2023/10/19 08:32:57;;;;;;;18.65;17.10;;;22.40;99.90;;;;;;4901798;29;20051;-86
2023/10/19 08:35:25;;;;;;;18.02;16.63;;;22.20;99.90;;;;;;4901799;29;20036;-88
2023/10/19 08:37:57;;;;;;;17.38;15.90;;;22.10;99.90;;;;;;4901703;29;20047;-86
2023/10/19 08:40:26;;;;;;;16.55;15.43;;;22.00;99.90;;;;;;4901768;29;20036;-87
2023/10/19 08:42:53;;;;;;;16.85;15.52;;;21.90;99.90;;;;;;4901643;29;20032;-88
2023/10/19 08:45:21;;;;;;;16.15;14.85;;;21.90;99.90;;;;;;4901693;29;20032;-88
2023/10/19 08:48:00;;;;;;;15.70;14.30;;;21.90;99.90;;;;;;4901581;29;20056;-87
2023/10/19 08:50:31;;;;;;;15.70;14.60;;;21.80;99.90;;;;;;4901589;29;20028;-86
2023/10/19 08:53:00;;;;;;;15.63;14.45;;;21.80;99.90;;;;;;4901434;29;20035;-86
2023/10/19 08:55:27;;;;;;;15.57;14.27;;;21.90;99.90;;;;;;4914109;29;20039;-85
2023/10/19 08:57:54;;;;;;;16.35;15.07;;;22.00;99.90;;;;;;4920118;29;20032;-85
2023/10/19 09:00:24;;;;;;;16.50;15.18;;;22.10;99.90;;;;;;4920576;29;20032;-86
2023/10/19 09:02:56;;;;;;;16.98;15.38;;;22.30;99.90;;;;;;4938425;29;20401;-86
2023/10/19 09:05:23;;;;;;;17.25;15.82;;;22.40;99.90;;;;;;4939335;29;20058;-85
2023/10/19 09:07:55;;;;;;;18.00;16.75;;;22.40;99.90;;;;;;4938635;29;20493;-87
2023/10/19 09:10:25;;;;;;;17.77;16.13;;;22.40;99.90;;;;;;4922669;29;20033;-87
2023/10/19 09:13:04;;;;;;;18.15;16.75;;;22.50;99.90;;;;;;4939866;29;20079;-87
2023/10/19 09:15:35;;;;;;;17.65;16.40;;;22.60;99.90;;;;;;4939073;29;20050;-87
2023/10/19 09:18:20;;;;;;;17.83;16.48;;;22.70;99.90;;;;;;4938288;29;20488;-86
2023/10/19 09:20:53;;;;;;;18.55;17.05;;;23.00;99.90;;;;;;4939013;29;20054;-87
2023/10/19 09:23:30;;;;;;;18.35;17.10;;;23.00;99.90;;;;;;4929611;29;20025;-86
2023/10/19 09:26:03;;;;;;;18.33;16.95;;;23.10;99.90;;;;;;4909272;29;20035;-85
2023/10/19 09:28:33;;;;;;;18.20;17.00;;;23.10;99.90;;;;;;4935467;29;20059;-86
2023/10/19 09:31:00;;;;;;;18.48;16.77;;;22.90;99.90;;;;;;4935499;29;20035;-85
2023/10/19 09:33:29;;;;;;;17.85;16.70;;;22.90;99.90;;;;;;4919632;29;20028;-86
2023/10/19 09:36:00;;;;;;;18.15;16.63;;;22.90;99.90;;;;;;4919622;29;20043;-86
2023/10/19 09:38:27;;;;;;;18.23;16.48;;;23.00;99.90;;;;;;4919816;29;20036;-86
2023/10/19 09:40:56;;;;;;;18.23;16.75;;;23.10;99.90;;;;;;4919782;29;20024;-86
2023/10/19 09:43:40;;;;;;;18.20;16.92;;;23.00;99.90;;;;;;4919844;29;20030;-87
2023/10/19 09:46:08;;;;;;;18.80;17.30;;;23.20;99.90;;;;;;4919614;29;20039;-86
2023/10/19 09:48:48;;;;;;;18.77;17.13;;;23.10;99.90;;;;;;4916328;29;20028;-87
2023/10/19 09:51:16;;;;;;;19.20;17.55;;;23.30;99.90;;;;;;4916750;29;20032;-86
2023/10/19 09:54:04;;;;;;;19.17;17.23;;;23.30;99.90;;;;;;4916215;29;20111;-86
2023/10/19 09:56:41;;;;;;;18.20;16.75;;;23.20;99.90;;;;;;4916311;29;20040;-87
2023/10/19 09:59:29;;;;;;;18.48;17.08;;;23.10;99.90;;;;;;4943799;29;20059;-86
2023/10/19 10:02:12;;;;;;;17.98;16.45;;;22.90;99.90;;;;;;4938490;29;20032;-88
2023/10/19 10:04:40;;;;;;;17.60;16.25;;;22.90;99.90;;;;;;4938665;29;20122;-86
2023/10/19 10:07:09;;;;;;;17.50;16.10;;;23.10;99.90;;;;;;4938549;29;20042;-87
2023/10/19 10:09:44;;;;;;;18.33;16.63;;;23.20;99.90;;;;;;4938458;29;20028;-86
2023/10/19 10:12:23;;;;;;;18.55;17.05;;;23.30;99.90;;;;;;4938293;29;20035;-88
2023/10/19 10:15:08;;;;;;;18.48;17.00;;;23.20;99.90;;;;;;4954415;29;20050;-87
2023/10/19 10:17:39;;;;;;;18.90;17.17;;;23.10;99.90;;;;;;4932910;29;20037;-87
2023/10/19 10:20:15;;;;;;;17.88;16.40;;;23.10;99.90;;;;;;4938036;29;20444;-86
2023/10/19 10:22:42;;;;;;;18.05;16.38;;;23.10;99.90;;;;;;4942013;29;20070;-87
2023/10/19 10:25:25;;;;;;;16.67;15.55;;;23.00;99.90;;;;;;4941838;29;20086;-86
2023/10/19 10:27:52;;;;;;;17.90;16.17;;;23.00;99.90;;;;;;4939188;29;20046;-87
2023/10/19 10:30:18;;;;;;;18.23;16.60;;;23.00;99.90;;;;;;4922719;29;20031;-87
2023/10/19 10:32:54;;;;;;;17.38;16.08;;;22.90;99.90;;;;;;4922668;29;20043;-86
2023/10/19 10:36:00;;;;;;;17.33;15.90;;;22.80;99.90;;;;;;4938733;29;20039;-87
2023/10/19 10:38:35;;;;;;;17.00;15.45;;;22.60;99.90;;;;;;4838809;29;20598;-86
2023/10/19 10:41:02;;;;;;;16.90;15.15;;;22.60;99.90;;;;;;4865592;29;20488;-86
2023/10/19 10:43:28;;;;;;;15.93;14.52;;;22.70;99.90;;;;;;4850097;29;20041;-86
2023/10/19 10:46:07;;;;;;;17.05;15.13;;;22.70;99.90;;;;;;4865403;29;20561;-86
2023/10/19 10:48:35;;;;;;;16.55;15.05;;;22.70;99.90;;;;;;4842332;29;20106;-86
2023/10/19 10:51:02;;;;;;;16.23;15.07;;;22.80;99.90;;;;;;4846961;29;20130;-87
2023/10/19 10:53:29;;;;;;;16.17;14.80;;;23.00;99.90;;;;;;4847415;29;20053;-86
2023/10/19 10:55:55;;;;;;;15.50;14.50;;;23.00;99.90;;;;;;4846495;29;20132;-87
2023/10/19 10:58:22;;;;;;;16.60;14.98;;;23.00;99.90;;;;;;4846753;29;20025;-86
2023/10/19 11:00:51;;;;;;;16.23;14.80;;;23.10;99.90;;;;;;4847058;29;20034;-86
2023/10/19 11:03:17;;;;;;;17.30;15.85;;;23.10;99.90;;;;;;4846680;29;20049;-86
2023/10/19 11:05:46;;;;;;;16.15;14.65;;;23.00;99.90;;;;;;4846614;29;20132;-86
2023/10/19 11:08:17;;;;;;;17.00;14.70;;;22.90;99.90;;;;;;4859389;29;20021;-87
2023/10/19 11:10:46;;;;;;;16.55;15.02;;;22.80;99.90;;;;;;4941092;29;20027;-86
2023/10/19 11:13:14;;;;;;;15.20;13.98;;;22.80;99.90;;;;;;4941135;29;20058;-87
2023/10/19 11:16:07;;;;;;;15.18;13.95;;;22.60;99.90;;;;;;4941159;29;20039;-86
2023/10/19 11:18:45;;;;;;;14.70;13.25;;;22.60;99.90;;;;;;4937194;29;20095;-86
2023/10/19 11:21:15;;;;;;;14.43;13.07;;;22.50;99.90;;;;;;4940846;29;20051;-86
2023/10/19 11:23:46;;;;;;;13.93;12.70;;;22.40;99.90;;;;;;4941433;29;20031;-86
2023/10/19 11:26:26;;;;;;;14.02;12.82;;;22.30;99.90;;;;;;4928622;29;20032;-86
2023/10/19 11:29:09;;;;;;;15.70;12.88;;;22.40;99.90;;;;;;4902963;29;20074;-86
2023/10/19 11:31:39;;;;;;;13.95;12.70;;;22.40;99.90;;;;;;4902046;29;20024;-86
2023/10/19 11:34:06;;;;;;;12.98;12.10;;;22.40;99.90;;;;;;4938935;29;20064;-85
2023/10/19 11:36:34;;;;;;;13.95;12.70;;;22.40;99.90;;;;;;4940728;29;20485;-87
2023/10/19 11:39:01;;;;;;;12.90;11.93;;;22.30;99.90;;;;;;4940814;29;20544;-86
2023/10/19 11:41:27;;;;;;;12.93;11.75;;;22.30;99.90;;;;;;4940544;29;20027;-87
2023/10/19 11:43:53;;;;;;;13.02;11.85;;;22.30;99.90;;;;;;4940077;29;20393;-85
2023/10/19 11:46:24;;;;;;;12.35;11.35;;;22.30;99.90;;;;;;4927541;29;20083;-86
2023/10/19 11:48:53;;;;;;;12.50;11.40;;;22.30;99.90;;;;;;4918186;29;20099;-85
2023/10/19 11:51:20;;;;;;;13.27;11.98;;;22.40;99.90;;;;;;4902738;29;20027;-84
2023/10/19 11:53:46;;;;;;;14.43;11.82;;;22.30;99.90;;;;;;4918343;29;20039;-85
2023/10/19 11:56:13;;;;;;;14.68;11.38;;;22.20;99.90;;;;;;4921427;29;20099;-90
2023/10/19 11:58:41;;;;;;;14.77;11.20;;;22.30;99.90;;;;;;4921361;29;20032;-83
2023/10/19 12:01:11;;;;;;;16.63;11.18;;;22.30;99.90;;;;;;4937660;29;20024;-82
2023/10/19 12:03:40;;;;;;;11.82;10.65;;;22.30;99.90;;;;;;4934286;29;20421;-83
2023/10/19 12:06:07;;;;;;;12.15;11.10;;;22.30;99.90;;;;;;4930123;29;20471;-84
2023/10/19 12:08:35;;;;;;;12.75;11.48;;;22.30;99.90;;;;;;4904464;29;20039;-86
2023/10/19 12:11:03;;;;;;;13.07;10.80;;;22.30;99.90;;;;;;4933704;29;20055;-87
2023/10/19 12:13:39;;;;;;;12.10;10.68;;;22.30;99.90;;;;;;4928542;29;20039;-93
2023/10/19 12:16:05;;;;;;;12.85;10.85;;;22.30;99.90;;;;;;4903919;29;20063;-91
2023/10/19 12:18:32;;;;;;;11.40;10.40;;;22.30;99.90;;;;;;4905761;29;20028;-92
2023/10/19 12:21:07;;;;;;;11.77;10.57;;;22.30;99.90;;;;;;4904703;29;20138;-93
2023/10/19 12:23:35;;;;;;;11.93;11.02;;;22.40;99.90;;;;;;4908110;29;20044;-92
2023/10/19 12:26:04;;;;;;;11.70;10.60;;;22.40;99.90;;;;;;4903373;29;20028;-91
2023/10/19 12:28:31;;;;;;;15.55;11.75;;;22.50;99.90;;;;;;4902261;29;20063;-89
2023/10/19 12:30:57;;;;;;;12.18;10.93;;;22.50;99.90;;;;;;4902419;29;20028;-92
2023/10/19 12:33:24;;;;;;;13.20;11.77;;;22.50;99.90;;;;;;4903017;29;20036;-90
2023/10/19 12:35:57;;;;;;;12.52;11.40;;;22.60;99.90;;;;;;4908254;29;20039;-91
2023/10/19 12:38:25;;;;;;;12.55;11.27;;;22.40;99.90;;;;;;4921725;29;20032;-91
2023/10/19 12:40:51;;;;;;;11.90;10.95;;;22.50;99.90;;;;;;4904887;29;20059;-91
2023/10/19 12:43:19;;;;;;;12.38;11.30;;;22.40;99.90;;;;;;4902954;29;20023;-89
2023/10/19 12:45:50;;;;;;;13.02;11.57;;;22.50;99.90;;;;;;4903792;29;20151;-91
2023/10/19 12:48:20;;;;;;;12.13;11.10;;;22.40;99.90;;;;;;4939295;29;20027;-92
2023/10/19 12:50:47;;;;;;;11.57;10.45;;;22.40;99.90;;;;;;4942105;29;20031;-92
2023/10/19 12:53:14;;;;;;;12.27;11.27;;;22.50;99.90;;;;;;4941717;29;20096;-91
2023/10/19 12:55:43;;;;;;;11.88;10.82;;;22.50;99.90;;;;;;4941544;29;20126;-92
2023/10/19 12:58:11;;;;;;;15.02;11.18;;;22.50;99.90;;;;;;4926731;29;20501;-92
2023/10/19 13:00:44;;;;;;;14.82;11.48;;;22.60;99.90;;;;;;4918147;29;20408;-91
2023/10/19 13:03:16;;;;;;;16.35;11.70;;;22.60;99.90;;;;;;4920934;29;20056;-91
2023/10/19 13:05:44;;;;;;;18.48;11.40;;;22.50;99.90;;;;;;4923414;29;20028;-91
2023/10/19 13:08:15;;;;;;;11.88;10.93;;;22.50;99.90;;;;;;4923154;29;20115;-89
2023/10/19 13:10:48;;;;;;;12.45;11.27;;;22.50;99.90;;;;;;4921400;29;20059;-89
2023/10/19 13:13:28;;;;;;;11.57;10.77;;;22.50;99.90;;;;;;4937006;29;20401;-90
2023/10/19 13:15:55;;;;;;;11.85;10.75;;;22.60;99.90;;;;;;4920966;29;20125;-90
2023/10/19 13:18:28;;;;;;;12.00;11.00;;;22.60;99.90;;;;;;4918871;29;20063;-91